Time;durP1;ratioP1;P1;durP2;ratioP2;P2;SDS_P1;SDS_P2;PMS_P1;PMS_P2;Temp;Humidity;BMP_temperature;BMP_pressure;BME280_temperature;BME280_humidity;BME280_pressure;Samples;Min_cycle;Max_cycle;Signal;HPM_P1;HPM_P2
2023/07/16 00:01:39;;;;;;;11.70;4.30;;;18.10;99.90;;;;;;5134167;27;20031;-72
2023/07/16 00:04:05;;;;;;;12.68;4.40;;;18.10;99.90;;;;;;5133039;27;20023;-72
2023/07/16 00:06:31;;;;;;;14.93;5.10;;;18.10;99.90;;;;;;5131878;27;20015;-71
2023/07/16 00:08:56;;;;;;;14.90;4.45;;;18.10;99.90;;;;;;5134318;27;20034;-72
2023/07/16 00:11:22;;;;;;;16.13;4.43;;;18.10;99.90;;;;;;5134189;27;20106;-72
2023/07/16 00:13:48;;;;;;;13.57;4.85;;;18.10;99.90;;;;;;5134437;27;20019;-72
2023/07/16 00:16:14;;;;;;;18.15;5.32;;;18.00;99.90;;;;;;5134176;27;20111;-72
2023/07/16 00:18:42;;;;;;;13.43;4.47;;;18.00;99.90;;;;;;5134162;27;20099;-72
2023/07/16 00:21:08;;;;;;;15.75;5.03;;;18.00;99.90;;;;;;5134227;27;20019;-72
2023/07/16 00:23:33;;;;;;;13.43;5.10;;;18.00;99.90;;;;;;5134241;27;20026;-72
2023/07/16 00:25:59;;;;;;;17.00;5.40;;;18.00;99.90;;;;;;5133811;27;20408;-71
2023/07/16 00:28:24;;;;;;;17.02;4.95;;;18.00;99.90;;;;;;5134012;27;20059;-70
2023/07/16 00:30:50;;;;;;;16.65;5.55;;;18.00;99.90;;;;;;5122358;27;20019;-70
2023/07/16 00:33:16;;;;;;;18.42;4.70;;;18.00;99.90;;;;;;5133900;27;20387;-71
2023/07/16 00:35:48;;;;;;;16.63;5.30;;;18.00;99.90;;;;;;5132703;27;20019;-70
2023/07/16 00:38:14;;;;;;;16.98;5.55;;;18.00;99.90;;;;;;5115353;27;20380;-70
2023/07/16 00:40:40;;;;;;;13.88;5.00;;;18.00;99.90;;;;;;5133499;27;20011;-71
2023/07/16 00:43:05;;;;;;;13.70;5.07;;;18.00;99.90;;;;;;5132260;27;20030;-71
2023/07/16 00:45:31;;;;;;;20.48;5.45;;;18.00;99.90;;;;;;5133292;27;20099;-70
2023/07/16 00:47:57;;;;;;;18.00;5.30;;;18.00;99.90;;;;;;5133877;27;20026;-71
2023/07/16 00:50:23;;;;;;;15.40;5.68;;;18.00;99.90;;;;;;5133385;27;20043;-71
2023/07/16 00:52:49;;;;;;;21.65;5.80;;;18.00;99.90;;;;;;5133541;27;20443;-70
2023/07/16 00:55:15;;;;;;;18.88;5.75;;;18.00;99.90;;;;;;5133395;27;20034;-70
2023/07/16 00:57:41;;;;;;;15.18;5.03;;;18.00;99.90;;;;;;5115096;27;20065;-71
2023/07/16 01:00:07;;;;;;;17.35;5.65;;;18.00;99.90;;;;;;5133454;27;20113;-70
2023/07/16 01:02:33;;;;;;;14.02;5.65;;;18.00;99.90;;;;;;5133495;27;20042;-70
2023/07/16 01:04:59;;;;;;;14.10;5.20;;;18.10;99.90;;;;;;5132025;27;20396;-71
2023/07/16 01:07:28;;;;;;;20.00;6.07;;;18.10;99.90;;;;;;5133006;27;20140;-71
2023/07/16 01:09:54;;;;;;;18.88;5.32;;;18.00;99.90;;;;;;5132036;27;20320;-71
2023/07/16 01:12:21;;;;;;;20.90;5.88;;;18.00;99.90;;;;;;5118481;27;20030;-71
2023/07/16 01:14:47;;;;;;;20.95;6.30;;;18.00;99.90;;;;;;5133126;27;20015;-71
2023/07/16 01:17:13;;;;;;;17.75;5.70;;;18.00;99.90;;;;;;5132556;27;20383;-71
2023/07/16 01:19:39;;;;;;;16.85;5.65;;;18.00;99.90;;;;;;5125986;27;20015;-71
2023/07/16 01:22:27;;;;;;;13.63;5.80;;;18.00;99.90;;;;;;5127644;27;20087;-71
2023/07/16 01:25:06;;;;;;;18.20;6.00;;;18.00;99.90;;;;;;5124017;27;20027;-71
2023/07/16 01:27:59;;;;;;;22.35;6.18;;;17.90;99.90;;;;;;5132561;27;20046;-71
2023/07/16 01:30:27;;;;;;;15.45;6.65;;;17.90;99.90;;;;;;5132693;27;20030;-71
2023/07/16 01:32:54;;;;;;;17.08;6.70;;;17.90;99.90;;;;;;5132744;27;20068;-71
2023/07/16 01:35:20;;;;;;;18.02;6.82;;;17.90;99.90;;;;;;5132499;27;20158;-71
2023/07/16 01:37:46;;;;;;;18.27;6.93;;;17.90;99.90;;;;;;5132563;27;20379;-71
2023/07/16 01:40:12;;;;;;;21.65;7.68;;;17.90;99.90;;;;;;5132433;27;20011;-71
2023/07/16 01:42:37;;;;;;;23.65;6.85;;;17.90;99.90;;;;;;5132314;27;20068;-71
2023/07/16 01:45:03;;;;;;;21.20;7.50;;;17.90;99.90;;;;;;5132590;27;20434;-71
2023/07/16 01:47:48;;;;;;;18.70;6.80;;;17.80;99.90;;;;;;5131782;27;20062;-71
2023/07/16 01:50:14;;;;;;;20.83;7.30;;;17.80;99.90;;;;;;5120389;27;20030;-71
2023/07/16 01:52:39;;;;;;;17.08;7.40;;;17.80;99.90;;;;;;5124343;27;20103;-71
2023/07/16 01:55:06;;;;;;;24.83;7.55;;;17.80;99.90;;;;;;5132303;27;20020;-71
2023/07/16 01:57:31;;;;;;;20.60;7.07;;;17.80;99.90;;;;;;5132460;27;20046;-71
2023/07/16 01:59:57;;;;;;;19.75;7.25;;;17.80;99.90;;;;;;5132037;27;20023;-71
2023/07/16 02:02:22;;;;;;;22.55;7.63;;;17.80;99.90;;;;;;5131992;27;20070;-71
2023/07/16 02:04:48;;;;;;;21.17;7.35;;;17.80;99.90;;;;;;5131818;27;20087;-71
2023/07/16 02:07:14;;;;;;;21.95;7.72;;;17.90;99.90;;;;;;5113660;27;20077;-71
2023/07/16 02:09:40;;;;;;;19.73;7.40;;;17.90;99.90;;;;;;5110207;28;20012;-71
2023/07/16 02:12:06;;;;;;;21.33;7.60;;;17.90;99.90;;;;;;5130146;27;20030;-71
2023/07/16 02:14:32;;;;;;;23.38;7.45;;;17.90;99.90;;;;;;5128415;27;20020;-71
2023/07/16 02:16:57;;;;;;;21.95;8.15;;;17.90;99.90;;;;;;5131739;27;20113;-71
2023/07/16 02:19:25;;;;;;;20.10;7.40;;;17.90;99.90;;;;;;5131751;27;20461;-71
2023/07/16 02:21:50;;;;;;;21.25;8.15;;;17.90;99.90;;;;;;5131906;27;20019;-72
2023/07/16 02:24:16;;;;;;;22.30;8.05;;;18.00;99.90;;;;;;5131780;27;20034;-71
2023/07/16 02:26:42;;;;;;;20.23;7.93;;;18.00;99.90;;;;;;5131755;27;20027;-71
2023/07/16 02:29:08;;;;;;;21.30;7.80;;;17.90;99.90;;;;;;5132200;27;20126;-71
2023/07/16 02:31:34;;;;;;;20.52;8.10;;;17.90;99.90;;;;;;5131772;27;20101;-71
2023/07/16 02:34:00;;;;;;;22.60;8.15;;;17.90;99.90;;;;;;5132043;27;20107;-71
2023/07/16 02:36:26;;;;;;;22.63;8.75;;;17.90;99.90;;;;;;5123230;27;20545;-71
2023/07/16 02:38:51;;;;;;;25.77;8.00;;;17.90;99.90;;;;;;5103695;28;20023;-71
2023/07/16 02:41:17;;;;;;;26.63;9.10;;;17.90;99.90;;;;;;5131342;27;20068;-71
2023/07/16 02:43:45;;;;;;;21.83;9.05;;;17.90;99.90;;;;;;5131354;27;20076;-71
2023/07/16 02:46:10;;;;;;;20.48;8.35;;;17.90;99.90;;;;;;5131038;27;20090;-70
2023/07/16 02:48:36;;;;;;;21.02;8.30;;;17.90;99.90;;;;;;5131224;27;20098;-71
2023/07/16 02:51:01;;;;;;;23.90;8.25;;;17.80;99.90;;;;;;5131433;27;20054;-71
2023/07/16 02:53:27;;;;;;;22.83;8.30;;;17.90;99.90;;;;;;5130940;27;20019;-71
2023/07/16 02:55:53;;;;;;;19.65;7.18;;;17.80;99.90;;;;;;5131346;27;20061;-71
2023/07/16 02:58:18;;;;;;;21.00;7.88;;;17.80;99.90;;;;;;5106999;27;20051;-71
2023/07/16 03:00:44;;;;;;;20.85;6.50;;;17.80;99.90;;;;;;5131090;27;20163;-71
2023/07/16 03:03:09;;;;;;;15.68;6.35;;;17.80;99.90;;;;;;5131112;27;20030;-71
2023/07/16 03:05:35;;;;;;;16.90;6.38;;;17.80;99.90;;;;;;5130995;27;20064;-71
2023/07/16 03:08:01;;;;;;;11.75;6.32;;;17.80;99.90;;;;;;5131242;28;20019;-70
2023/07/16 03:10:26;;;;;;;22.67;6.00;;;17.70;99.90;;;;;;5130887;28;20039;-71
2023/07/16 03:12:53;;;;;;;16.55;5.45;;;17.70;99.90;;;;;;5129959;28;20027;-71
2023/07/16 03:15:18;;;;;;;20.30;6.00;;;17.70;99.90;;;;;;5130802;28;20622;-71
2023/07/16 03:17:44;;;;;;;22.50;6.13;;;17.70;99.90;;;;;;5131188;28;20030;-71
2023/07/16 03:20:10;;;;;;;15.80;5.90;;;17.70;99.90;;;;;;5130890;28;20429;-71
2023/07/16 03:22:36;;;;;;;15.35;5.57;;;17.60;99.90;;;;;;5131064;28;20050;-71
2023/07/16 03:25:02;;;;;;;16.20;6.18;;;17.60;99.90;;;;;;5130779;28;20472;-71
2023/07/16 03:27:28;;;;;;;16.98;6.60;;;17.60;99.90;;;;;;5131229;27;20035;-71
2023/07/16 03:29:54;;;;;;;14.40;6.10;;;17.60;99.90;;;;;;5135276;27;20024;-71
2023/07/16 03:32:20;;;;;;;15.02;5.38;;;17.60;99.90;;;;;;5135171;27;20102;-71
2023/07/16 03:34:45;;;;;;;12.82;5.85;;;17.60;99.90;;;;;;5134983;27;20072;-71
2023/07/16 03:37:11;;;;;;;19.05;6.90;;;17.60;99.90;;;;;;5134921;27;20551;-71
2023/07/16 03:39:36;;;;;;;16.52;6.72;;;17.60;99.90;;;;;;5134822;27;20015;-71
2023/07/16 03:42:02;;;;;;;20.08;6.50;;;17.50;99.90;;;;;;5135253;27;20061;-71
2023/07/16 03:44:29;;;;;;;24.63;7.25;;;17.50;99.90;;;;;;5130605;27;20027;-71
2023/07/16 03:46:55;;;;;;;26.60;8.13;;;17.50;99.90;;;;;;5134818;27;20020;-71
2023/07/16 03:49:21;;;;;;;20.30;8.23;;;17.50;99.90;;;;;;5134434;27;20479;-71
2023/07/16 03:51:46;;;;;;;22.08;7.70;;;17.50;99.90;;;;;;5134724;27;20047;-71
2023/07/16 03:54:12;;;;;;;21.42;7.40;;;17.50;99.90;;;;;;5116369;27;20068;-71
2023/07/16 03:56:38;;;;;;;19.50;6.95;;;17.50;99.90;;;;;;5134468;27;20498;-71
2023/07/16 03:59:04;;;;;;;22.48;7.55;;;17.50;99.90;;;;;;5134661;27;20016;-71
2023/07/16 04:01:29;;;;;;;22.35;7.85;;;17.50;99.90;;;;;;5113052;27;20039;-71
2023/07/16 04:03:55;;;;;;;23.60;7.70;;;17.50;99.90;;;;;;5134464;27;20053;-71
2023/07/16 04:06:20;;;;;;;21.63;7.43;;;17.50;99.90;;;;;;5134346;27;20012;-71
2023/07/16 04:08:46;;;;;;;22.65;7.47;;;17.50;99.90;;;;;;5134297;27;20401;-71
2023/07/16 04:11:12;;;;;;;22.13;7.82;;;17.50;99.90;;;;;;5134398;27;20102;-71
2023/07/16 04:13:37;;;;;;;14.98;7.50;;;17.50;99.90;;;;;;5115878;27;20027;-72
2023/07/16 04:16:03;;;;;;;17.45;7.47;;;17.50;99.90;;;;;;5115762;27;20077;-71
2023/07/16 04:18:29;;;;;;;21.05;8.45;;;17.50;99.90;;;;;;5133788;27;20027;-71
2023/07/16 04:20:54;;;;;;;21.27;7.25;;;17.50;99.90;;;;;;5134020;27;20494;-71
2023/07/16 04:23:20;;;;;;;21.27;8.13;;;17.50;99.90;;;;;;5134159;27;20031;-71
2023/07/16 04:25:46;;;;;;;17.80;7.47;;;17.50;99.90;;;;;;5132483;27;20023;-71
2023/07/16 04:28:12;;;;;;;20.45;7.88;;;17.50;99.90;;;;;;5115411;27;20023;-70
2023/07/16 04:30:38;;;;;;;18.38;7.97;;;17.50;99.90;;;;;;5130159;27;20035;-71
2023/07/16 04:33:04;;;;;;;18.63;8.15;;;17.60;99.90;;;;;;5125821;27;20027;-70
2023/07/16 04:35:30;;;;;;;21.33;7.88;;;17.60;99.90;;;;;;5133862;27;20023;-70
2023/07/16 04:37:55;;;;;;;16.40;7.65;;;17.60;99.90;;;;;;5133676;27;20490;-70
2023/07/16 04:40:21;;;;;;;17.45;7.45;;;17.60;99.90;;;;;;5132498;27;20412;-71
2023/07/16 04:42:47;;;;;;;15.02;7.07;;;17.70;99.90;;;;;;5133551;27;20426;-70
2023/07/16 04:45:13;;;;;;;18.55;7.38;;;17.70;99.90;;;;;;5133998;27;20019;-70
2023/07/16 04:47:38;;;;;;;21.65;8.18;;;17.70;99.90;;;;;;5133920;27;20042;-70
2023/07/16 04:50:05;;;;;;;19.10;7.70;;;17.70;99.90;;;;;;5128993;27;20024;-70
2023/07/16 04:52:30;;;;;;;17.25;7.25;;;17.70;99.90;;;;;;5124648;27;20047;-70
2023/07/16 04:54:56;;;;;;;23.58;7.75;;;17.80;99.90;;;;;;5133153;27;20110;-70
2023/07/16 04:57:22;;;;;;;20.92;7.72;;;17.80;99.90;;;;;;5133403;27;20015;-71
2023/07/16 04:59:47;;;;;;;16.80;7.00;;;17.80;99.90;;;;;;5133350;27;20016;-70
2023/07/16 05:02:15;;;;;;;18.35;7.60;;;17.80;99.90;;;;;;5133245;27;20019;-71
2023/07/16 05:04:41;;;;;;;19.05;7.15;;;17.80;99.90;;;;;;5125488;27;20026;-71
2023/07/16 05:07:07;;;;;;;16.55;7.10;;;17.80;99.90;;;;;;5128224;27;20007;-71
2023/07/16 05:09:32;;;;;;;15.40;6.85;;;17.80;99.90;;;;;;5131719;27;20069;-71
2023/07/16 05:11:58;;;;;;;18.45;6.97;;;17.80;99.90;;;;;;5130227;27;20697;-71
2023/07/16 05:14:27;;;;;;;17.85;6.78;;;17.80;99.90;;;;;;5131609;27;20397;-71
2023/07/16 05:16:53;;;;;;;18.27;6.90;;;17.80;99.90;;;;;;5133016;27;20027;-71
2023/07/16 05:19:19;;;;;;;16.50;6.80;;;17.80;99.90;;;;;;5133090;27;20056;-71
2023/07/16 05:21:44;;;;;;;16.27;6.95;;;17.80;99.90;;;;;;5133253;27;20031;-71
2023/07/16 05:24:10;;;;;;;16.48;6.93;;;17.80;99.90;;;;;;5133047;27;20019;-71
2023/07/16 05:26:36;;;;;;;13.98;6.57;;;17.80;99.90;;;;;;5132831;27;20024;-71
2023/07/16 05:29:02;;;;;;;17.38;6.55;;;17.80;99.90;;;;;;5111278;27;20019;-71
2023/07/16 05:31:27;;;;;;;19.85;7.13;;;17.90;99.90;;;;;;5132709;27;20022;-71
2023/07/16 05:33:53;;;;;;;18.30;6.95;;;17.90;99.90;;;;;;5132654;27;20503;-71
2023/07/16 05:36:18;;;;;;;18.45;7.25;;;17.90;99.90;;;;;;5132706;27;20014;-71
2023/07/16 05:38:44;;;;;;;19.85;7.38;;;17.90;99.90;;;;;;5125650;27;20024;-71
2023/07/16 05:41:10;;;;;;;19.00;6.63;;;18.00;99.90;;;;;;5132211;27;20491;-71
2023/07/16 05:43:35;;;;;;;17.55;6.93;;;18.00;99.90;;;;;;5132647;27;20102;-70
2023/07/16 05:46:01;;;;;;;18.52;7.07;;;18.00;99.90;;;;;;5132499;27;20023;-70
2023/07/16 05:48:27;;;;;;;20.80;7.20;;;18.10;99.90;;;;;;5133219;27;20019;-70
2023/07/16 05:50:52;;;;;;;19.90;6.70;;;18.10;99.90;;;;;;5131865;27;20051;-70
2023/07/16 05:53:18;;;;;;;17.08;6.75;;;18.10;99.90;;;;;;5132231;27;20073;-71
2023/07/16 05:55:44;;;;;;;18.38;7.07;;;18.00;99.90;;;;;;5132380;27;20519;-70
2023/07/16 05:58:09;;;;;;;18.92;7.65;;;18.10;99.90;;;;;;5132334;27;20057;-70
2023/07/16 06:00:35;;;;;;;17.00;7.32;;;18.10;99.90;;;;;;5132359;27;20546;-70
2023/07/16 06:03:04;;;;;;;17.05;6.93;;;18.10;99.90;;;;;;5132333;27;20015;-70
2023/07/16 06:05:34;;;;;;;22.02;7.82;;;18.10;99.90;;;;;;5113470;27;20645;-70
2023/07/16 06:08:00;;;;;;;16.17;7.50;;;18.10;99.90;;;;;;5132406;27;20015;-70
2023/07/16 06:10:26;;;;;;;17.90;7.80;;;18.10;99.90;;;;;;5131996;27;20149;-70
2023/07/16 06:12:51;;;;;;;17.58;8.10;;;18.10;99.90;;;;;;5132111;27;20488;-70
2023/07/16 06:15:17;;;;;;;17.92;7.43;;;18.10;99.90;;;;;;5131823;27;20044;-70
2023/07/16 06:17:43;;;;;;;19.15;7.75;;;18.20;99.90;;;;;;5132516;27;20069;-70
2023/07/16 06:20:09;;;;;;;18.40;7.32;;;18.10;99.90;;;;;;5132527;27;20486;-70
2023/07/16 06:22:34;;;;;;;18.17;7.80;;;18.10;99.90;;;;;;5131621;27;20080;-70
2023/07/16 06:25:00;;;;;;;21.15;7.32;;;18.20;99.90;;;;;;5131652;27;20028;-70
2023/07/16 06:27:26;;;;;;;17.08;7.35;;;18.20;99.90;;;;;;5131686;27;20098;-70
2023/07/16 06:29:51;;;;;;;19.15;7.53;;;18.20;99.90;;;;;;5113172;27;20019;-69
2023/07/16 06:32:17;;;;;;;20.98;7.63;;;18.20;99.90;;;;;;5111897;27;20391;-70
2023/07/16 06:34:43;;;;;;;21.52;7.22;;;18.20;99.90;;;;;;5123547;27;20049;-70
2023/07/16 06:37:08;;;;;;;13.45;7.00;;;18.20;99.90;;;;;;5130126;27;20020;-71
2023/07/16 06:39:34;;;;;;;17.65;7.70;;;18.20;99.90;;;;;;5125256;27;20028;-70
2023/07/16 06:42:00;;;;;;;17.95;6.85;;;18.20;99.90;;;;;;5130346;27;20076;-71
2023/07/16 06:44:25;;;;;;;16.33;7.35;;;18.30;99.90;;;;;;5131212;27;20031;-71
2023/07/16 06:46:51;;;;;;;17.40;7.22;;;18.40;99.90;;;;;;5109329;28;20115;-71
2023/07/16 06:49:17;;;;;;;21.77;7.78;;;18.40;99.90;;;;;;5112192;27;20022;-71
2023/07/16 06:51:42;;;;;;;16.38;7.10;;;18.50;99.90;;;;;;5099088;27;20282;-70
2023/07/16 06:54:08;;;;;;;17.92;7.38;;;18.60;99.90;;;;;;5121567;27;20083;-71
2023/07/16 06:56:34;;;;;;;16.15;7.50;;;18.60;99.90;;;;;;5130938;27;20015;-70
2023/07/16 06:58:59;;;;;;;18.85;7.80;;;18.60;99.90;;;;;;5131418;27;20033;-70
2023/07/16 07:01:27;;;;;;;19.52;7.90;;;18.60;99.90;;;;;;5112514;28;20035;-70
2023/07/16 07:03:53;;;;;;;19.63;7.43;;;18.60;99.90;;;;;;5122741;27;20019;-70
2023/07/16 07:06:19;;;;;;;18.27;7.55;;;18.60;99.90;;;;;;5114639;27;20031;-70
2023/07/16 07:08:44;;;;;;;20.45;7.90;;;18.70;99.90;;;;;;5112492;28;20019;-70
2023/07/16 07:11:10;;;;;;;20.17;7.63;;;18.70;99.90;;;;;;5130708;28;20418;-70
2023/07/16 07:13:36;;;;;;;26.25;7.75;;;18.70;99.90;;;;;;5130862;28;20012;-70
2023/07/16 07:16:01;;;;;;;19.52;7.93;;;18.80;99.90;;;;;;5131043;28;20026;-70
2023/07/16 07:18:27;;;;;;;17.70;7.30;;;18.90;99.90;;;;;;5130792;28;20019;-70
2023/07/16 07:20:53;;;;;;;15.52;7.40;;;19.00;99.90;;;;;;5130993;28;20098;-70
2023/07/16 07:23:18;;;;;;;20.17;7.82;;;19.00;99.90;;;;;;5120541;28;20110;-70
2023/07/16 07:25:49;;;;;;;17.75;8.07;;;19.00;99.90;;;;;;5129005;28;20031;-71
2023/07/16 07:28:15;;;;;;;16.38;7.97;;;19.00;99.90;;;;;;5131019;28;20433;-71
2023/07/16 07:30:41;;;;;;;18.30;7.55;;;19.00;99.90;;;;;;5130854;28;20027;-71
2023/07/16 07:33:06;;;;;;;17.02;7.32;;;19.00;99.90;;;;;;5130930;28;20077;-71
2023/07/16 07:35:32;;;;;;;18.20;7.40;;;19.00;99.90;;;;;;5101317;28;20111;-70
2023/07/16 07:37:57;;;;;;;16.33;7.32;;;19.00;99.90;;;;;;5130733;28;20034;-71
2023/07/16 07:40:23;;;;;;;23.08;8.15;;;19.00;99.90;;;;;;5131121;28;20039;-71
2023/07/16 07:42:49;;;;;;;15.55;6.93;;;19.10;99.90;;;;;;5130634;28;20026;-71
2023/07/16 07:45:14;;;;;;;15.93;7.13;;;19.20;99.90;;;;;;5130946;28;20223;-71
2023/07/16 07:47:41;;;;;;;21.98;6.65;;;19.20;99.90;;;;;;5130645;28;20019;-70
2023/07/16 07:50:07;;;;;;;18.77;7.57;;;19.30;99.90;;;;;;5112195;28;20026;-70
2023/07/16 07:52:32;;;;;;;16.67;7.40;;;19.30;99.90;;;;;;5130615;28;20055;-70
2023/07/16 07:54:58;;;;;;;17.02;7.68;;;19.20;99.90;;;;;;5130405;28;20023;-70
2023/07/16 07:57:24;;;;;;;18.60;8.05;;;19.20;99.90;;;;;;5130637;28;20379;-70
2023/07/16 07:59:51;;;;;;;17.00;7.57;;;19.20;99.90;;;;;;5104178;28;20023;-70
2023/07/16 08:02:18;;;;;;;14.18;6.32;;;19.30;99.90;;;;;;5130559;28;20023;-70
2023/07/16 08:04:45;;;;;;;17.15;6.80;;;19.40;99.90;;;;;;5129079;28;20023;-71
2023/07/16 08:07:10;;;;;;;19.55;6.85;;;19.40;99.90;;;;;;5130744;28;20404;-71
2023/07/16 08:09:37;;;;;;;13.55;5.75;;;19.40;99.90;;;;;;5130223;28;20027;-71
2023/07/16 08:12:03;;;;;;;17.10;6.25;;;19.50;99.90;;;;;;5129318;28;20020;-71
2023/07/16 08:14:29;;;;;;;17.15;6.68;;;19.50;99.90;;;;;;5113326;27;20022;-71
2023/07/16 08:16:54;;;;;;;12.25;5.75;;;19.50;99.90;;;;;;5134172;27;20019;-71
2023/07/16 08:19:20;;;;;;;13.63;6.28;;;19.40;99.90;;;;;;5134050;27;20038;-72
2023/07/16 08:21:45;;;;;;;18.50;6.20;;;19.50;99.90;;;;;;5134143;27;20031;-71
2023/07/16 08:24:11;;;;;;;17.00;6.65;;;19.50;99.90;;;;;;5129035;27;20092;-71
2023/07/16 08:26:37;;;;;;;14.43;6.30;;;19.50;99.90;;;;;;5121658;27;20026;-71
2023/07/16 08:29:03;;;;;;;13.02;6.28;;;19.50;99.90;;;;;;5131012;27;20015;-71
2023/07/16 08:31:29;;;;;;;18.08;6.90;;;19.50;99.90;;;;;;5134079;27;20340;-71
2023/07/16 08:33:54;;;;;;;16.48;6.00;;;19.40;99.90;;;;;;5133547;27;20026;-71
2023/07/16 08:36:20;;;;;;;16.55;6.28;;;19.40;99.90;;;;;;5133801;27;20023;-71
2023/07/16 08:38:46;;;;;;;15.80;6.38;;;19.50;99.90;;;;;;5133597;27;20019;-71
2023/07/16 08:41:12;;;;;;;14.88;6.75;;;19.50;99.90;;;;;;5133555;27;20019;-71
2023/07/16 08:43:39;;;;;;;19.30;7.05;;;19.60;99.90;;;;;;5115176;27;20027;-71
2023/07/16 08:46:04;;;;;;;15.45;6.53;;;19.60;99.90;;;;;;5133839;27;20011;-70
2023/07/16 08:48:30;;;;;;;16.40;7.38;;;19.60;99.90;;;;;;5133723;27;20106;-70
2023/07/16 08:50:58;;;;;;;15.63;7.10;;;19.60;99.90;;;;;;5133382;27;20122;-71
2023/07/16 08:53:24;;;;;;;19.27;7.28;;;19.50;99.90;;;;;;5133288;27;20015;-70
2023/07/16 08:55:50;;;;;;;18.73;7.47;;;19.50;99.90;;;;;;5134072;27;20306;-71
2023/07/16 08:58:16;;;;;;;18.95;7.95;;;19.50;99.90;;;;;;5133339;27;20041;-72
2023/07/16 09:00:44;;;;;;;23.02;7.60;;;19.60;99.90;;;;;;5133416;27;20023;-71
2023/07/16 09:03:12;;;;;;;19.90;7.43;;;19.70;99.90;;;;;;5133187;27;20059;-71
2023/07/16 09:05:39;;;;;;;21.50;7.72;;;19.60;99.90;;;;;;5133459;27;20019;-72
2023/07/16 09:08:04;;;;;;;19.75;6.97;;;19.70;99.90;;;;;;5133230;27;20073;-72
2023/07/16 09:10:30;;;;;;;19.10;7.07;;;19.90;99.90;;;;;;5133169;27;20011;-72
2023/07/16 09:12:58;;;;;;;18.00;6.30;;;19.90;99.90;;;;;;5133184;27;20390;-71
2023/07/16 09:15:24;;;;;;;16.77;6.40;;;20.00;99.90;;;;;;5132784;27;20031;-71
2023/07/16 09:17:50;;;;;;;16.58;6.15;;;20.00;99.90;;;;;;5133069;27;20156;-71
2023/07/16 09:20:17;;;;;;;17.77;6.38;;;20.00;99.90;;;;;;5132634;27;20102;-71
2023/07/16 09:22:43;;;;;;;13.43;5.45;;;20.00;99.90;;;;;;5132780;27;20023;-71
2023/07/16 09:25:10;;;;;;;14.80;5.35;;;19.90;99.90;;;;;;5132353;27;20038;-72
2023/07/16 09:27:36;;;;;;;16.90;5.60;;;20.00;99.90;;;;;;5132711;27;20379;-72
2023/07/16 09:30:05;;;;;;;19.60;5.80;;;20.10;99.90;;;;;;5132465;27;20077;-71
2023/07/16 09:32:39;;;;;;;17.23;5.32;;;20.20;99.90;;;;;;5132941;27;20045;-72
2023/07/16 09:35:16;;;;;;;17.42;5.95;;;20.20;99.90;;;;;;5133189;27;20425;-72
2023/07/16 09:37:42;;;;;;;16.08;5.57;;;20.20;99.90;;;;;;5125458;27;20027;-71
2023/07/16 09:40:12;;;;;;;15.43;5.50;;;20.20;99.90;;;;;;5132687;27;20098;-72
2023/07/16 09:42:43;;;;;;;15.98;5.43;;;20.20;99.90;;;;;;5132413;27;20049;-72
2023/07/16 09:45:19;;;;;;;16.02;5.07;;;20.20;99.90;;;;;;5132700;27;20019;-71
2023/07/16 09:47:45;;;;;;;13.85;5.10;;;20.20;99.90;;;;;;5132688;27;20094;-72
2023/07/16 09:50:11;;;;;;;13.27;5.35;;;20.30;99.90;;;;;;5132273;27;20185;-72
2023/07/16 09:52:39;;;;;;;15.40;4.97;;;20.30;99.90;;;;;;5132375;27;20051;-72
2023/07/16 09:55:07;;;;;;;15.88;4.75;;;20.40;99.90;;;;;;5132577;27;20445;-72
2023/07/16 09:57:41;;;;;;;16.33;5.75;;;20.40;99.90;;;;;;5133203;27;20027;-73
2023/07/16 10:00:13;;;;;;;17.85;5.63;;;20.50;99.90;;;;;;5129633;27;20027;-73
2023/07/16 10:02:40;;;;;;;15.13;5.75;;;20.50;99.90;;;;;;5132589;27;20023;-73
2023/07/16 10:05:17;;;;;;;13.13;4.78;;;20.60;99.90;;;;;;5132386;27;20027;-72
2023/07/16 10:07:50;;;;;;;13.65;3.88;;;20.90;99.90;;;;;;5132117;27;20409;-71
2023/07/16 10:10:17;;;;;;;12.32;3.92;;;21.10;99.90;;;;;;5132391;27;20023;-72
2023/07/16 10:12:54;;;;;;;8.98;3.35;;;21.30;99.90;;;;;;5132673;27;20027;-72
2023/07/16 10:15:28;;;;;;;11.55;3.45;;;21.30;99.90;;;;;;5132413;27;20081;-73
2023/07/16 10:17:55;;;;;;;17.20;3.78;;;21.20;99.90;;;;;;5121913;27;20031;-71
2023/07/16 10:20:42;;;;;;;11.85;3.58;;;21.10;99.90;;;;;;5131990;27;20031;-73
2023/07/16 10:23:16;;;;;;;10.52;3.10;;;21.00;99.90;;;;;;5131825;27;20062;-73
2023/07/16 10:26:05;;;;;;;12.27;3.40;;;20.90;99.90;;;;;;5131989;27;20023;-73
2023/07/16 10:28:34;;;;;;;18.58;3.42;;;20.90;99.90;;;;;;5131970;27;20031;-72
2023/07/16 10:31:00;;;;;;;8.70;3.13;;;20.90;99.90;;;;;;5132089;27;20019;-71
2023/07/16 10:33:26;;;;;;;9.68;3.40;;;21.00;99.90;;;;;;5114005;27;20047;-72
2023/07/16 10:35:52;;;;;;;10.68;3.20;;;21.10;99.90;;;;;;5128394;27;20038;-72
2023/07/16 10:38:17;;;;;;;11.48;2.92;;;21.00;99.90;;;;;;5127901;27;20153;-72
2023/07/16 10:40:44;;;;;;;14.45;3.00;;;21.00;99.90;;;;;;5132215;27;20019;-72
2023/07/16 10:43:10;;;;;;;14.27;3.30;;;21.00;99.90;;;;;;5132240;27;20027;-72
2023/07/16 10:45:36;;;;;;;39.70;5.65;;;21.10;99.90;;;;;;5131851;27;20019;-72
2023/07/16 10:48:02;;;;;;;13.50;2.60;;;21.30;99.40;;;;;;5131847;27;20380;-72
2023/07/16 10:50:28;;;;;;;10.30;2.75;;;21.40;98.60;;;;;;5131598;27;20383;-72
2023/07/16 10:52:56;;;;;;;15.68;3.42;;;21.50;98.70;;;;;;5132416;27;20015;-72
2023/07/16 10:55:22;;;;;;;10.60;2.70;;;21.70;98.40;;;;;;5119937;27;20019;-72
2023/07/16 10:57:49;;;;;;;8.73;3.15;;;21.80;98.40;;;;;;5131691;27;20023;-72
2023/07/16 11:00:16;;;;;;;12.15;3.20;;;21.70;98.60;;;;;;5131907;27;20023;-72
2023/07/16 11:02:43;;;;;;;11.32;3.00;;;21.70;99.00;;;;;;5131631;27;20064;-72
2023/07/16 11:05:13;;;;;;;17.95;3.45;;;21.60;99.30;;;;;;5131653;27;20065;-72
2023/07/16 11:07:49;;;;;;;12.80;2.90;;;21.60;99.10;;;;;;5131610;27;20020;-72
2023/07/16 11:10:18;;;;;;;13.18;2.67;;;21.50;99.20;;;;;;5126295;27;20027;-72
2023/07/16 11:12:44;;;;;;;12.95;2.92;;;21.40;99.10;;;;;;5131237;28;20051;-72
2023/07/16 11:15:10;;;;;;;9.68;2.80;;;21.50;99.40;;;;;;5130928;28;20096;-72
2023/07/16 11:17:39;;;;;;;14.80;3.08;;;21.60;98.70;;;;;;5101536;28;20611;-72
2023/07/16 11:20:07;;;;;;;13.45;2.88;;;21.70;98.20;;;;;;5131583;28;20030;-72
2023/07/16 11:22:38;;;;;;;11.63;2.65;;;21.60;98.40;;;;;;5130481;28;20154;-72
2023/07/16 11:25:10;;;;;;;12.55;2.17;;;21.60;98.60;;;;;;5130936;28;20494;-72
2023/07/16 11:27:36;;;;;;;8.35;2.13;;;21.70;97.90;;;;;;5118066;28;20027;-71
2023/07/16 11:30:02;;;;;;;11.25;2.75;;;21.80;97.20;;;;;;5131152;28;20031;-71
2023/07/16 11:32:35;;;;;;;13.13;2.45;;;21.80;97.60;;;;;;5130824;28;20015;-72
2023/07/16 11:35:03;;;;;;;12.45;2.92;;;21.90;97.80;;;;;;5130851;28;20418;-71
2023/07/16 11:37:31;;;;;;;11.93;2.50;;;21.70;97.90;;;;;;5130511;28;20786;-72
2023/07/16 11:40:06;;;;;;;13.80;2.83;;;21.70;97.90;;;;;;5125206;28;20436;-72
2023/07/16 11:42:35;;;;;;;16.85;2.40;;;21.60;98.10;;;;;;5130287;28;20019;-76
2023/07/16 11:45:01;;;;;;;12.30;2.65;;;21.70;98.80;;;;;;5123135;28;20020;-75
2023/07/16 11:47:27;;;;;;;12.27;2.60;;;21.90;98.50;;;;;;5115806;28;20375;-76
2023/07/16 11:49:54;;;;;;;9.60;2.33;;;22.10;97.10;;;;;;5135246;27;20046;-76
2023/07/16 11:52:21;;;;;;;14.50;2.30;;;22.20;96.00;;;;;;5136386;27;20047;-75
2023/07/16 11:54:47;;;;;;;17.00;2.50;;;22.30;95.20;;;;;;5124420;27;20037;-74
2023/07/16 11:57:13;;;;;;;14.57;2.20;;;22.50;94.40;;;;;;5125596;27;20374;-74
2023/07/16 11:59:38;;;;;;;20.30;2.78;;;22.50;94.70;;;;;;5120064;27;20065;-75
2023/07/16 12:02:04;;;;;;;18.02;2.60;;;22.50;95.10;;;;;;5132869;27;20498;-76
2023/07/16 12:04:30;;;;;;;17.13;2.45;;;22.60;95.30;;;;;;5135771;27;20019;-75
2023/07/16 12:06:55;;;;;;;17.77;2.83;;;22.70;95.90;;;;;;5132419;27;20095;-75
2023/07/16 12:09:21;;;;;;;17.92;2.83;;;23.00;95.70;;;;;;5116194;27;20342;-75
2023/07/16 12:11:47;;;;;;;16.15;2.53;;;23.10;95.40;;;;;;5131687;27;20023;-76
2023/07/16 12:14:13;;;;;;;15.73;2.60;;;23.30;95.10;;;;;;5134438;27;20379;-76
2023/07/16 12:16:38;;;;;;;11.82;2.65;;;23.30;94.30;;;;;;5133723;27;20023;-76
2023/07/16 12:19:07;;;;;;;14.95;2.75;;;23.20;94.70;;;;;;5134634;27;20083;-75
2023/07/16 12:21:32;;;;;;;10.98;2.58;;;23.20;95.20;;;;;;5127626;27;20026;-76
2023/07/16 12:23:58;;;;;;;16.35;2.72;;;23.30;94.60;;;;;;5134644;27;20356;-76
2023/07/16 12:26:23;;;;;;;14.82;3.03;;;23.40;94.00;;;;;;5134879;27;20098;-76
2023/07/16 12:28:49;;;;;;;15.90;2.72;;;23.30;94.00;;;;;;5135969;27;20039;-75
2023/07/16 12:31:16;;;;;;;19.08;2.97;;;23.30;94.10;;;;;;5135227;27;20128;-76
2023/07/16 12:33:42;;;;;;;15.80;2.35;;;23.20;94.10;;;;;;5134301;27;20046;-76
2023/07/16 12:36:08;;;;;;;11.60;2.70;;;23.10;94.20;;;;;;5133906;27;20019;-76